createdAt,value
2022-11-13T00:02:49.171Z,5.13
2022-11-13T00:08:12.616Z,4.90
2022-11-13T00:13:35.202Z,4.60
2022-11-13T00:18:57.243Z,3.83
2022-11-13T00:24:20.567Z,4.30
2022-11-13T00:29:42.370Z,4.20
2022-11-13T00:35:04.025Z,4.53
2022-11-13T00:40:27.231Z,4.80
2022-11-13T00:45:48.960Z,4.33
2022-11-13T00:51:11.300Z,4.70
2022-11-13T00:56:34.450Z,4.17
2022-11-13T01:01:56.127Z,4.17
2022-11-13T01:07:18.392Z,4.50
2022-11-13T01:12:41.888Z,3.93
2022-11-13T01:18:03.935Z,3.33
2022-11-13T01:23:25.872Z,4.17
2022-11-13T01:28:49.486Z,4.33
2022-11-13T01:34:11.625Z,3.57
2022-11-13T01:39:33.348Z,3.73
2022-11-13T01:44:59.718Z,3.33
2022-11-13T01:50:22.135Z,3.50
2022-11-13T01:55:44.759Z,3.77
2022-11-13T02:01:08.618Z,3.57
2022-11-13T02:06:36.954Z,3.50
2022-11-13T02:11:59.764Z,3.10
2022-11-13T02:17:26.415Z,3.17
2022-11-13T02:22:58.310Z,3.77
2022-11-13T02:28:21.928Z,3.83
2022-11-13T02:33:43.839Z,3.33
2022-11-13T02:39:09.805Z,3.30
2022-11-13T02:44:33.253Z,4.00
2022-11-13T02:49:55.144Z,3.80
2022-11-13T02:55:17.695Z,3.63
2022-11-13T03:00:41.151Z,3.50
2022-11-13T03:06:03.084Z,3.40
2022-11-13T03:11:25.121Z,3.47
2022-11-13T03:16:48.458Z,3.27
2022-11-13T03:22:10.511Z,3.07
2022-11-13T03:27:33.542Z,2.80
2022-11-13T03:32:57.725Z,2.73
2022-11-13T03:38:19.764Z,2.40
2022-11-13T03:43:41.686Z,2.30
2022-11-13T03:49:04.996Z,2.57
2022-11-13T03:54:26.712Z,2.30
2022-11-13T03:59:48.583Z,2.43
2022-11-13T04:05:11.977Z,2.83
2022-11-13T04:10:34.005Z,2.40
2022-11-13T04:15:55.626Z,2.30
2022-11-13T04:21:18.710Z,2.40
2022-11-13T04:26:41.022Z,2.80
2022-11-13T04:32:03.071Z,2.73
2022-11-13T04:37:26.112Z,2.67
2022-11-13T04:42:51.031Z,2.77
2022-11-13T04:48:13.242Z,2.73
2022-11-13T04:53:36.672Z,2.73
2022-11-13T04:58:58.832Z,2.67
2022-11-13T05:04:21.079Z,3.00
2022-11-13T05:09:44.762Z,2.23
2022-11-13T05:15:07.911Z,2.17
2022-11-13T05:20:29.962Z,2.53
2022-11-13T05:25:53.492Z,2.23
2022-11-13T05:31:17.488Z,2.23
2022-11-13T05:36:39.504Z,2.53
2022-11-13T05:42:03.143Z,5.50
2022-11-13T05:47:24.822Z,3.50
2022-11-13T05:52:46.371Z,3.17
2022-11-13T05:58:11.858Z,2.67
2022-11-13T06:03:34.274Z,3.53
2022-11-13T06:08:57.692Z,2.60
2022-11-13T06:14:20.913Z,2.53
2022-11-13T06:19:42.667Z,2.53
2022-11-13T06:25:04.585Z,2.37
2022-11-13T06:30:27.936Z,2.13
2022-11-13T06:35:50.109Z,2.20
2022-11-13T06:41:13.819Z,2.20
2022-11-13T06:46:37.279Z,2.20
2022-11-13T06:51:59.330Z,2.30
2022-11-13T06:57:21.106Z,2.00
2022-11-13T07:02:44.436Z,2.70
2022-11-13T07:08:06.726Z,2.50
2022-11-13T07:13:29.836Z,3.57
2022-11-13T07:18:54.008Z,3.60
2022-11-13T07:24:17.213Z,4.60
2022-11-13T07:29:40.120Z,5.00
2022-11-13T07:35:03.725Z,5.33
2022-11-13T07:40:25.544Z,5.93
2022-11-13T07:45:47.514Z,6.73
2022-11-13T07:51:10.624Z,7.70
2022-11-13T07:56:32.329Z,10.27
2022-11-13T08:01:54.290Z,11.03
2022-11-13T08:07:17.535Z,12.50
2022-11-13T08:12:39.454Z,15.90
2022-11-13T08:18:02.997Z,13.10
2022-11-13T08:23:26.559Z,11.77
2022-11-13T08:28:48.638Z,11.87
2022-11-13T08:34:10.912Z,12.33
2022-11-13T08:39:35.557Z,10.90
2022-11-13T08:44:57.203Z,10.13
2022-11-13T08:50:19.540Z,10.83
2022-11-13T08:55:42.900Z,12.77
2022-11-13T09:01:05.811Z,9.40
2022-11-13T09:06:27.954Z,9.03
2022-11-13T09:11:52.512Z,8.03
2022-11-13T09:17:14.441Z,9.07
2022-11-13T09:22:36.561Z,8.57
2022-11-13T09:28:01.971Z,7.37
2022-11-13T09:33:24.156Z,7.77
2022-11-13T09:38:45.998Z,6.90
2022-11-13T09:44:17.232Z,7.00
2022-11-13T09:49:44.265Z,6.77
2022-11-13T09:55:07.392Z,7.47
2022-11-13T10:00:34.778Z,6.67
2022-11-13T10:06:05.608Z,7.32
2022-11-13T10:11:38.115Z,6.30
2022-11-13T10:17:08.247Z,5.95
2022-11-13T10:22:35.355Z,6.35
2022-11-13T10:27:59.307Z,5.80
2022-11-13T10:33:23.993Z,6.60
2022-11-13T10:38:50.302Z,6.53
2022-11-13T10:44:27.506Z,6.35
2022-11-13T10:49:50.795Z,5.07
2022-11-13T10:55:19.004Z,4.68
2022-11-13T11:00:44.464Z,5.25
2022-11-13T11:06:08.375Z,5.10
2022-11-13T11:11:47.594Z,5.20
2022-11-13T11:17:10.498Z,5.55
2022-11-13T11:22:38.254Z,5.22
2022-11-13T11:28:06.187Z,5.00
2022-11-13T11:33:34.182Z,4.55
2022-11-13T11:39:03.404Z,4.75
2022-11-13T11:44:32.471Z,4.45
2022-11-13T11:49:56.698Z,4.95
2022-11-13T11:55:35.720Z,3.63
2022-11-13T12:01:04.549Z,4.55
2022-11-13T12:06:37.034Z,4.55
2022-11-13T12:12:12.316Z,5.18
2022-11-13T12:17:46.605Z,4.75
2022-11-13T12:23:23.583Z,4.22
2022-11-13T12:28:58.398Z,4.20
2022-11-13T12:34:29.030Z,5.00
2022-11-13T12:39:58.065Z,5.37
2022-11-13T12:45:27.655Z,4.83
2022-11-13T12:50:59.416Z,4.43
2022-11-13T12:56:33.334Z,4.37
2022-11-13T13:02:10.115Z,4.20
2022-11-13T13:07:49.803Z,4.67
2022-11-13T13:13:24.157Z,3.70
2022-11-13T13:18:48.268Z,4.45
2022-11-13T13:24:27.563Z,4.40
2022-11-13T13:29:49.783Z,4.23
2022-11-13T13:35:18.809Z,4.37
2022-11-13T13:40:58.055Z,4.07
2022-11-13T13:46:22.310Z,4.50
2022-11-13T13:51:49.294Z,4.80
2022-11-13T13:57:16.198Z,5.50
2022-11-13T14:02:47.238Z,4.63
2022-11-13T14:08:19.495Z,4.37
2022-11-13T14:13:42.009Z,4.20
2022-11-13T14:19:05.798Z,4.13
2022-11-13T14:24:34.170Z,4.87
2022-11-13T14:29:58.354Z,4.63
2022-11-13T14:35:22.765Z,4.20
2022-11-13T14:40:49.368Z,4.33
2022-11-13T14:46:32.838Z,4.57
2022-11-13T14:51:56.685Z,4.50
2022-11-13T14:57:19.767Z,19.10
2022-11-13T15:02:41.479Z,16.37
2022-11-13T15:08:03.641Z,16.77
2022-11-13T15:13:27.183Z,14.13
2022-11-13T15:18:53.150Z,9.50
2022-11-13T15:24:15.531Z,11.07
2022-11-13T15:29:38.587Z,10.70
2022-11-13T15:35:00.292Z,10.57
2022-11-13T15:40:21.960Z,12.03
2022-11-13T15:45:45.093Z,11.37
2022-11-13T15:51:07.503Z,11.87
2022-11-13T15:56:30.962Z,10.23
2022-11-13T16:01:58.081Z,11.53
2022-11-13T16:07:24.342Z,10.33
2022-11-13T16:12:47.034Z,10.80
2022-11-13T16:18:23.947Z,9.90
2022-11-13T16:23:45.792Z,10.23
2022-11-13T16:29:18.547Z,12.33
2022-11-13T16:34:41.486Z,11.67
2022-11-13T16:40:03.823Z,13.87
2022-11-13T16:45:26.087Z,13.50
2022-11-13T16:50:49.440Z,14.47
2022-11-13T16:56:14.836Z,13.80
2022-11-13T17:01:36.576Z,13.33
2022-11-13T17:07:00.066Z,14.00
2022-11-13T17:12:23.037Z,13.83
2022-11-13T17:17:45.135Z,12.03
2022-11-13T17:23:08.161Z,11.40
2022-11-13T17:28:29.894Z,10.37
2022-11-13T17:33:53.614Z,8.77
2022-11-13T17:39:16.622Z,7.77
2022-11-13T17:44:38.834Z,8.43
2022-11-13T17:50:06.657Z,8.17
2022-11-13T17:55:31.086Z,9.20
2022-11-13T18:00:53.680Z,8.80
2022-11-13T18:06:19.707Z,8.27
2022-11-13T18:11:43.298Z,7.50
2022-11-13T18:17:05.392Z,7.30
2022-11-13T18:22:29.537Z,7.20
2022-11-13T18:27:52.989Z,6.53
2022-11-13T18:33:14.949Z,6.47
2022-11-13T18:38:37.635Z,6.63
2022-11-13T18:44:01.292Z,5.47
2022-11-13T18:49:23.495Z,5.50
2022-11-13T18:54:45.438Z,5.50
2022-11-13T19:00:12.593Z,6.27
2022-11-13T19:05:34.554Z,7.50
2022-11-13T19:10:56.442Z,7.80
2022-11-13T19:16:21.325Z,6.90
2022-11-13T19:21:43.185Z,6.70
2022-11-13T19:27:05.247Z,7.77
2022-11-13T19:32:28.979Z,8.10
2022-11-13T19:37:57.116Z,9.70
2022-11-13T19:43:19.412Z,9.80
2022-11-13T19:48:44.679Z,10.73
2022-11-13T19:54:06.994Z,11.27
2022-11-13T19:59:28.731Z,9.83
2022-11-13T20:04:52.138Z,8.90
2022-11-13T20:10:14.283Z,8.80
2022-11-13T20:15:36.818Z,9.23
2022-11-13T20:21:00.595Z,7.80
2022-11-13T20:26:22.532Z,6.70
2022-11-13T20:31:44.559Z,6.13
2022-11-13T20:37:07.891Z,6.33
2022-11-13T20:42:30.144Z,5.37
2022-11-13T20:47:51.827Z,7.03
2022-11-13T20:53:14.908Z,7.03
2022-11-13T20:58:36.802Z,6.73
2022-11-13T21:03:59.630Z,5.00
2022-11-13T21:09:23.225Z,6.00
2022-11-13T21:14:45.254Z,6.03
2022-11-13T21:20:08.234Z,5.00
2022-11-13T21:25:31.908Z,5.77
2022-11-13T21:30:53.562Z,5.33
2022-11-13T21:36:17.206Z,5.13
2022-11-13T21:41:40.143Z,4.83
2022-11-13T21:47:01.875Z,4.33
2022-11-13T21:52:23.519Z,3.10
2022-11-13T21:57:47.255Z,2.30
2022-11-13T22:03:09.326Z,2.80
2022-11-13T22:08:31.689Z,2.70
2022-11-13T22:13:55.594Z,2.77
2022-11-13T22:19:25.297Z,2.10
2022-11-13T22:24:48.557Z,2.40
2022-11-13T22:30:13.120Z,2.60
2022-11-13T22:35:35.304Z,2.70
2022-11-13T22:41:02.400Z,3.00
2022-11-13T22:46:27.130Z,3.00
2022-11-13T22:51:48.979Z,3.20
2022-11-13T22:57:10.849Z,3.20
2022-11-13T23:02:34.210Z,3.30
2022-11-13T23:07:56.457Z,3.30
2022-11-13T23:13:17.915Z,3.60
2022-11-13T23:18:42.128Z,4.23
2022-11-13T23:24:04.577Z,4.53
2022-11-13T23:29:26.157Z,6.00
2022-11-13T23:35:04.716Z,5.73
2022-11-13T23:40:26.831Z,5.27
2022-11-13T23:45:48.588Z,5.03
2022-11-13T23:51:12.158Z,6.70
2022-11-13T23:56:33.700Z,7.70
